Terminal Aerodrome Forecast
Issued by NWS

Current Version | Previous Version | Graphics & Text | Print | Product List | Glossary On
Versions: 1 2 3 4 5 6 7 8 9 10 11 12 13 14 15 16 17 18 19 20 21 22 23 24 25 26 27 28 29 30 31 32 33 34 35 36 37 38 39 40
087
FTUS41 KRNK 251720
TAFLWB
TAF
KLWB 251720Z 2518/2618 23004KT P6SM BKN040
     FM260300 00000KT P6SM BKN020
     FM260900 00000KT P6SM BKN050
     FM261000 00000KT 3SM BR BKN020
     FM261300 VRB03KT P6SM BKN060
     FM261500 19003KT P6SM VCSH OVC025
     FM261700 21005KT P6SM VCSH OVC040=

USA.gov is the U.S. government's official web portal to all federal, state and local government web resources and services.